Commerce City, CO

11:38 PM MDT on August 20, 2014 (GMT -0600)
North Denver - Elyria / Swansea | Change Station
CLOSE
Current Station
Personal Weather Station
Location: Denver, CO
Elevation: 5184 ft
Nearby Weather Stations

Elev 5184 ft 39.79 °N, 104.95 °W | Updated 8 minutes ago

Overcast
Overcast
67.1 °F
Feels Like 67.1 °F
N
0.0
Wind Variable Wind from East
Gusts 0.0 mph

Today
High -- | Low -- °F
--% Chance of Precip.
Yesterday
High -- | Low -- °F
Precip. -- in
6:16 AM 7:48 PM
Waning Crescent, 16% visible
Pressure 30.05 in
Visibility 10.0 miles
Clouds Few 5000 ft
Overcast 10000 ft
Dew Point 51 °F
Humidity 57%
Rainfall 0.00 in
Snow Depth Not available.
UV 0 out of 12
Pollen 9.60 out of 12
Ozone Good
PM2.5 Good
Flu Activity Not available.
SPECI KDEN 210524Z 07005KT 10SM FEW050 OVC100 18/14 A3005 RMK AO2 RAE0454 TSE20 OCNL LTGICCG DSNT E AND SE TS MOV NE P0000 T01830139 $

More Conditions Fewer Conditions

Pressure 30.05 in
Visibility 10.0 miles
Clouds Few 5000 ft
Overcast 10000 ft
Dew Point 51 °F
Humidity 57%
Rainfall 0.00 in
Snow Depth Not available.
UV 0 out of 12
Pollen 9.60 out of 12
Ozone Good
PM2.5 Good
Flu Activity Not available.
SPECI KDEN 210524Z 07005KT 10SM FEW050 OVC100 18/14 A3005 RMK AO2 RAE0454 TSE20 OCNL LTGICCG DSNT E AND SE TS MOV NE P0000 T01830139 $

More Conditions Fewer Conditions

Nowcast | as of 10:11 PM MDT on August 20, 2014

Scattered showers and isolated thunderstorms will be moving northeastward across the southern foothills and the urban corridor through midnight PM. Expect some lightning ...gusty winds and brief moderate rain with the storms.

×

10-Day Weather Forecast

Almanac

Astronomy

Aug. 20, 2014 Rise Set
Actual Time 6:16 AM MDT 7:48 PM MDT
Civil Twilight 5:47 AM MDT 8:17 PM MDT
Nautical Twilight 5:13 AM MDT 8:51 PM MDT
Astronomical Twilight 4:37 AM MDT 9:27 PM MDT
Moon 1:58 AM MDT (8/20) 4:35 PM MDT (8/20)
Length of Visible Light 14h 29m
Length of Day
13h 32m
Tomorrow will be 2m 23s shorter.
Waning Crescent, 16% of the Moon is Illuminated
Aug 21
Waning Crescent
Aug 25
New
Sep 2
First Quarter
Sep 8
Full
Sep 15
Last Quarter

Yesterday's Extremes

State Highs State Lows

Community

WunderPhotos

Upload Photos

1,745,858 photos uploaded!

Nearby

Air Quality

  Air Quality AQ Index Pollutant
Yesterday Good
PM10
Yesterday Good
OZONE
Current Good
OZONE
Current Good
PM2.5
Wednesday Moderate
OZONE
Wednesday Good
PM2.5
Thursday Moderate
OZONE
Thursday Good
PM2.5

Snow Depth

Station Depth Elevation
Niwot 0 in 9910 ft
Echo Lake 0 in 10600 ft
University Camp 0 in 10300 ft
Copeland Lake 0 in 8600 ft
Wild Basin 0 in 9560 ft

Earthquake Activity

City Distance Mag. Time & Date
No recent earthquake activity has been reported nearby.
Minimum magnitude displayed is 2.5.

Coastal Water Temperatures

Place Temperature
No Stations Reporting

Nearby Weather Stations